createdAt,value
2022-08-19T00:01:44.523Z,54.27
2022-08-19T00:04:14.157Z,54.36
2022-08-19T00:06:44.983Z,54.69
2022-08-19T00:09:15.924Z,55.14
2022-08-19T00:11:44.884Z,54.88
2022-08-19T00:14:14.324Z,54.47
2022-08-19T00:16:42.503Z,54.07
2022-08-19T00:19:10.103Z,54.43
2022-08-19T00:21:40.928Z,54.61
2022-08-19T00:24:10.205Z,53.99
2022-08-19T00:26:38.002Z,54.22
2022-08-19T00:29:06.963Z,53.85
2022-08-19T00:31:34.164Z,54.27
2022-08-19T00:34:01.483Z,54.29
2022-08-19T00:36:29.863Z,54.61
2022-08-19T00:38:57.235Z,54.57
2022-08-19T00:41:25.503Z,54.08
2022-08-19T00:44:13.823Z,53.67
2022-08-19T00:46:44.223Z,54.60
2022-08-19T00:49:20.823Z,55.08
2022-08-19T00:51:52.483Z,54.83
2022-08-19T00:54:21.003Z,54.47
2022-08-19T00:56:56.283Z,55.02
2022-08-19T00:59:56.502Z,55.00
2022-08-19T01:02:11.803Z,54.72
2022-08-19T01:04:39.163Z,54.48
2022-08-19T01:07:06.543Z,54.50
2022-08-19T01:09:33.805Z,54.07
2022-08-19T01:12:01.683Z,54.25
2022-08-19T01:14:29.164Z,54.29
2022-08-19T01:16:58.251Z,53.94
2022-08-19T01:19:51.923Z,54.13
2022-08-19T01:22:31.442Z,54.14
2022-08-19T01:25:00.564Z,54.15
2022-08-19T01:27:29.905Z,53.99
2022-08-19T01:30:02.463Z,54.55
2022-08-19T01:32:32.457Z,54.73
2022-08-19T01:35:05.405Z,55.04
2022-08-19T01:37:44.543Z,55.07
2022-08-19T01:40:12.450Z,55.40
2022-08-19T01:42:40.183Z,55.08
2022-08-19T01:45:08.663Z,54.90
2022-08-19T01:47:38.703Z,54.96
2022-08-19T01:50:08.472Z,55.30
2022-08-19T01:52:40.324Z,54.91
2022-08-19T01:55:11.043Z,54.93
2022-08-19T01:57:39.784Z,55.13
2022-08-19T02:00:12.483Z,55.58
2022-08-19T02:02:40.624Z,55.86
2022-08-19T02:05:13.043Z,55.88
2022-08-19T02:07:41.723Z,56.06
2022-08-19T02:10:13.573Z,55.95
2022-08-19T02:12:44.063Z,55.89
2022-08-19T02:15:11.469Z,55.53
2022-08-19T02:17:38.723Z,55.08
2022-08-19T02:20:07.584Z,54.86
2022-08-19T02:22:35.226Z,55.21
2022-08-19T02:25:03.105Z,55.22
2022-08-19T02:27:30.285Z,55.24
2022-08-19T02:29:57.883Z,55.09
2022-08-19T02:32:24.943Z,55.67
2022-08-19T02:34:52.044Z,55.30
2022-08-19T02:37:37.903Z,55.38
2022-08-19T02:40:12.188Z,55.50
2022-08-19T02:42:41.983Z,55.13
2022-08-19T02:45:09.443Z,55.31
2022-08-19T02:47:36.803Z,55.47
2022-08-19T02:50:05.551Z,55.79
2022-08-19T02:52:35.044Z,55.88
2022-08-19T02:55:02.885Z,55.74
2022-08-19T02:57:32.546Z,56.30
2022-08-19T03:00:00.445Z,56.13
2022-08-19T03:02:27.563Z,56.28
2022-08-19T03:04:54.743Z,56.17
2022-08-19T03:07:21.823Z,56.04
2022-08-19T03:09:48.866Z,56.47
2022-08-19T03:12:15.964Z,56.34
2022-08-19T03:14:42.983Z,56.07
2022-08-19T03:17:10.543Z,56.18
2022-08-19T03:19:37.603Z,56.11
2022-08-19T03:22:05.704Z,56.12
2022-08-19T03:24:32.783Z,56.65
2022-08-19T03:27:00.079Z,56.42
2022-08-19T03:29:30.604Z,56.99
2022-08-19T03:32:04.783Z,56.43
2022-08-19T03:34:35.443Z,56.67
2022-08-19T03:37:07.587Z,56.69
2022-08-19T03:39:37.083Z,56.36
2022-08-19T03:42:32.524Z,56.82
2022-08-19T03:44:52.244Z,56.85
2022-08-19T03:47:19.563Z,56.46
2022-08-19T03:49:46.925Z,56.93
2022-08-19T03:52:14.663Z,57.08
2022-08-19T03:54:42.424Z,57.72
2022-08-19T03:57:10.303Z,57.36
2022-08-19T03:59:39.084Z,57.58
2022-08-19T04:02:12.083Z,56.85
2022-08-19T04:04:44.710Z,56.28
2022-08-19T04:07:17.005Z,56.15
2022-08-19T04:09:44.525Z,55.04
2022-08-19T04:12:11.639Z,55.04
2022-08-19T04:14:38.862Z,54.58
2022-08-19T04:17:06.129Z,54.33
2022-08-19T04:19:36.011Z,54.49
2022-08-19T04:22:03.708Z,54.29
2022-08-19T04:24:31.127Z,54.68
2022-08-19T04:27:00.543Z,54.53
2022-08-19T04:29:28.203Z,54.75
2022-08-19T04:32:09.038Z,54.84
2022-08-19T04:35:02.473Z,54.77
2022-08-19T04:37:35.421Z,54.58
2022-08-19T04:40:21.804Z,54.34
2022-08-19T04:42:50.505Z,54.45
2022-08-19T04:45:18.004Z,54.24
2022-08-19T04:47:47.812Z,54.12
2022-08-19T04:50:27.372Z,53.07
2022-08-19T04:52:54.761Z,52.67
2022-08-19T04:55:22.178Z,52.04
2022-08-19T04:57:50.164Z,52.25
2022-08-19T05:00:17.564Z,51.42
2022-08-19T05:02:44.763Z,51.80
2022-08-19T05:05:12.112Z,51.86
2022-08-19T05:07:39.423Z,51.66
2022-08-19T05:10:07.811Z,51.95
2022-08-19T05:12:34.963Z,51.62
2022-08-19T05:15:05.151Z,51.97
2022-08-19T05:17:38.092Z,52.27
2022-08-19T05:20:34.051Z,51.96
2022-08-19T05:23:01.184Z,51.94
2022-08-19T05:25:36.324Z,51.98
2022-08-19T05:28:03.543Z,51.70
2022-08-19T05:30:46.442Z,51.50
2022-08-19T05:33:14.552Z,51.36
2022-08-19T05:35:42.290Z,51.53
2022-08-19T05:38:09.565Z,50.86
2022-08-19T05:40:37.703Z,51.87
2022-08-19T05:43:05.903Z,52.14
2022-08-19T05:45:33.692Z,53.22
2022-08-19T05:48:00.804Z,53.29
2022-08-19T05:50:28.004Z,53.50
2022-08-19T05:52:55.301Z,54.00
2022-08-19T05:55:23.649Z,54.24
2022-08-19T05:57:50.917Z,53.77
2022-08-19T06:00:21.478Z,53.76
2022-08-19T06:02:52.621Z,52.55
2022-08-19T06:05:21.317Z,52.88
2022-08-19T06:07:48.537Z,53.60
2022-08-19T06:10:15.777Z,54.06
2022-08-19T06:12:42.797Z,54.49
2022-08-19T06:15:13.879Z,53.62
2022-08-19T06:17:42.921Z,53.51
2022-08-19T06:20:13.139Z,53.33
2022-08-19T06:22:47.140Z,53.83
2022-08-19T06:25:15.980Z,53.93
2022-08-19T06:28:14.616Z,53.24
2022-08-19T06:30:30.790Z,53.62
2022-08-19T06:32:57.989Z,53.13
2022-08-19T06:35:25.002Z,52.90
2022-08-19T06:37:52.139Z,53.49
2022-08-19T06:40:19.333Z,53.49
2022-08-19T06:42:52.997Z,54.03
2022-08-19T06:45:34.527Z,53.57
2022-08-19T06:48:02.982Z,53.51
2022-08-19T06:50:30.360Z,53.19
2022-08-19T06:52:57.443Z,52.27
2022-08-19T06:55:30.470Z,51.53
2022-08-19T06:58:05.008Z,51.44
2022-08-19T07:00:32.499Z,51.37
2022-08-19T07:03:02.978Z,50.53
2022-08-19T07:05:33.239Z,50.67
2022-08-19T07:08:04.861Z,50.20
2022-08-19T07:10:33.979Z,50.12
2022-08-19T07:13:01.421Z,49.76
2022-08-19T07:15:28.450Z,49.28
2022-08-19T07:17:56.326Z,49.12
2022-08-19T07:20:28.666Z,49.05
2022-08-19T07:22:56.580Z,49.37
2022-08-19T07:25:32.280Z,49.31
2022-08-19T07:28:01.491Z,49.18
2022-08-19T07:30:28.959Z,48.77
2022-08-19T07:32:57.381Z,47.89
2022-08-19T07:35:25.087Z,47.46
2022-08-19T07:37:52.045Z,47.32
2022-08-19T07:40:19.160Z,47.17
2022-08-19T07:42:46.131Z,46.77
2022-08-19T07:45:13.630Z,47.06
2022-08-19T07:47:49.529Z,46.47
2022-08-19T07:50:20.563Z,46.30
2022-08-19T07:52:51.044Z,46.38
2022-08-19T07:55:41.265Z,45.86
2022-08-19T07:58:09.221Z,45.56
2022-08-19T08:00:37.036Z,45.85
2022-08-19T08:03:04.119Z,46.16
2022-08-19T08:05:49.649Z,46.80
2022-08-19T08:08:35.665Z,47.16
2022-08-19T08:11:02.720Z,47.55
2022-08-19T08:13:36.479Z,48.02
2022-08-19T08:16:10.398Z,49.26
2022-08-19T08:18:43.449Z,50.53
2022-08-19T08:21:18.201Z,51.31
2022-08-19T08:23:45.190Z,52.88
2022-08-19T08:26:14.230Z,52.64
2022-08-19T08:28:43.270Z,52.12
2022-08-19T08:31:15.720Z,53.81
2022-08-19T08:33:43.510Z,54.58
2022-08-19T08:36:10.974Z,54.72
2022-08-19T08:38:40.587Z,55.70
2022-08-19T08:41:33.200Z,56.28
2022-08-19T08:44:00.561Z,55.92
2022-08-19T08:46:58.701Z,56.92
2022-08-19T08:49:30.419Z,58.72
2022-08-19T08:52:08.550Z,58.39
2022-08-19T08:54:40.600Z,57.53
2022-08-19T08:57:43.400Z,57.92
2022-08-19T09:00:19.473Z,57.91
2022-08-19T09:02:50.748Z,57.48
2022-08-19T09:05:22.283Z,57.44
2022-08-19T09:08:13.792Z,56.71
2022-08-19T09:10:56.419Z,56.14
2022-08-19T09:13:30.226Z,55.51
2022-08-19T09:16:27.840Z,55.70
2022-08-19T09:19:03.439Z,55.25
2022-08-19T09:21:35.759Z,55.74
2022-08-19T09:24:03.972Z,55.49
2022-08-19T09:26:47.341Z,55.22
2022-08-19T09:29:18.861Z,55.91
2022-08-19T09:31:45.909Z,55.93
2022-08-19T09:34:21.304Z,55.85
2022-08-19T09:36:54.569Z,55.59
2022-08-19T09:39:22.979Z,56.93
2022-08-19T09:41:51.228Z,57.01
2022-08-19T09:44:19.003Z,57.26
2022-08-19T09:46:48.397Z,57.36
2022-08-19T09:49:18.574Z,57.29
2022-08-19T09:51:51.301Z,57.01
2022-08-19T09:54:23.529Z,56.22
2022-08-19T09:56:56.109Z,58.22
2022-08-19T09:59:23.378Z,57.16
2022-08-19T10:01:52.119Z,56.11
2022-08-19T10:04:20.566Z,56.03
2022-08-19T10:06:53.825Z,55.86
2022-08-19T10:09:26.454Z,55.89
2022-08-19T10:12:02.444Z,55.72
2022-08-19T10:14:29.979Z,55.45
2022-08-19T10:16:59.308Z,55.30
2022-08-19T10:19:26.895Z,55.74
2022-08-19T10:21:55.644Z,55.83
2022-08-19T10:24:29.173Z,55.05
2022-08-19T10:26:59.653Z,54.61
2022-08-19T10:29:32.057Z,54.74
2022-08-19T10:32:03.325Z,55.72
2022-08-19T10:34:31.575Z,55.70
2022-08-19T10:37:00.910Z,55.12
2022-08-19T10:39:31.408Z,53.32
2022-08-19T10:42:00.269Z,52.98
2022-08-19T10:44:32.281Z,52.58
2022-08-19T10:47:00.721Z,52.60
2022-08-19T10:49:28.266Z,53.29
2022-08-19T10:52:20.196Z,53.38
2022-08-19T10:55:08.385Z,54.63
2022-08-19T10:57:59.454Z,55.27
2022-08-19T11:00:24.647Z,54.83
2022-08-19T11:13:18.296Z,56.29
2022-08-19T11:15:47.068Z,57.42
2022-08-19T11:18:14.509Z,56.90
2022-08-19T11:20:41.477Z,56.29
2022-08-19T11:23:08.830Z,56.13
2022-08-19T11:25:36.418Z,55.98
2022-08-19T11:28:03.650Z,54.41
2022-08-19T11:30:30.629Z,53.43
2022-08-19T11:32:57.669Z,53.68
2022-08-19T11:35:24.648Z,53.54
2022-08-19T11:37:51.639Z,52.49
2022-08-19T11:40:19.125Z,52.60
2022-08-19T11:42:58.250Z,52.12
2022-08-19T11:45:27.910Z,51.25
2022-08-19T11:47:55.041Z,51.06
2022-08-19T11:50:22.289Z,50.96
2022-08-19T11:52:50.868Z,50.49
2022-08-19T11:55:17.989Z,50.06
2022-08-19T11:57:45.018Z,49.45
2022-08-19T12:00:14.269Z,49.13
2022-08-19T12:02:41.639Z,50.03
2022-08-19T12:05:12.681Z,50.06
2022-08-19T12:07:42.018Z,50.26
2022-08-19T12:10:09.452Z,49.13
2022-08-19T12:12:41.609Z,48.19
2022-08-19T12:15:09.967Z,47.50
2022-08-19T12:17:37.039Z,47.73
2022-08-19T12:20:06.143Z,47.39
2022-08-19T12:22:33.170Z,47.47
2022-08-19T12:25:00.220Z,47.61
2022-08-19T12:27:32.279Z,47.75
2022-08-19T12:30:10.408Z,48.31
2022-08-19T12:32:37.878Z,48.14
2022-08-19T12:35:06.108Z,47.73
2022-08-19T12:37:33.778Z,46.23
2022-08-19T12:40:00.934Z,45.41
2022-08-19T12:42:28.040Z,45.12
2022-08-19T12:44:55.249Z,42.62
2022-08-19T12:47:23.429Z,42.25
2022-08-19T12:49:53.897Z,39.63
2022-08-19T12:52:24.077Z,39.30
2022-08-19T12:54:54.300Z,39.99
2022-08-19T12:57:31.840Z,36.25
2022-08-19T13:00:02.001Z,34.72
2022-08-19T13:02:38.552Z,34.75
2022-08-19T13:05:09.620Z,34.91
2022-08-19T13:07:38.423Z,33.76
2022-08-19T13:10:12.269Z,32.62
2022-08-19T13:12:42.120Z,32.53
2022-08-19T13:15:11.229Z,32.87
2022-08-19T13:17:39.311Z,32.37
2022-08-19T13:20:09.259Z,32.13
2022-08-19T13:22:37.240Z,32.14
2022-08-19T13:25:06.539Z,31.04
2022-08-19T13:27:33.960Z,30.75
2022-08-19T13:30:19.881Z,30.83
2022-08-19T13:33:05.470Z,30.78
2022-08-19T13:35:32.573Z,30.32
2022-08-19T13:37:59.593Z,30.14
2022-08-19T13:40:28.160Z,30.28
2022-08-19T13:42:56.362Z,29.55
2022-08-19T13:45:25.879Z,29.83
2022-08-19T13:47:59.208Z,30.03
2022-08-19T13:50:34.709Z,29.94
2022-08-19T13:53:03.510Z,29.82
2022-08-19T13:55:31.229Z,29.90
2022-08-19T13:58:00.408Z,29.82
2022-08-19T14:00:30.176Z,30.22
2022-08-19T14:02:58.639Z,30.38
2022-08-19T14:05:27.469Z,30.23
2022-08-19T14:07:54.611Z,30.88
2022-08-19T14:10:22.361Z,31.35
2022-08-19T14:12:49.540Z,31.95
2022-08-19T14:15:17.058Z,32.60
2022-08-19T14:17:45.870Z,33.00
2022-08-19T14:20:18.376Z,32.32
2022-08-19T14:22:49.017Z,31.25
2022-08-19T14:25:20.220Z,31.81
2022-08-19T14:27:48.012Z,31.23
2022-08-19T14:30:19.234Z,31.22
2022-08-19T14:32:46.339Z,30.70
2022-08-19T14:35:16.041Z,30.75
2022-08-19T14:37:46.252Z,30.68
2022-08-19T14:40:16.838Z,30.62
2022-08-19T14:42:44.803Z,30.40
2022-08-19T14:45:13.177Z,30.91
2022-08-19T14:47:40.940Z,30.65
2022-08-19T14:50:17.745Z,29.93
2022-08-19T14:52:49.047Z,29.88
2022-08-19T14:55:18.429Z,30.50
2022-08-19T14:57:46.287Z,30.12
2022-08-19T15:00:14.480Z,30.51
2022-08-19T15:02:43.017Z,30.35
2022-08-19T15:05:10.219Z,30.57
2022-08-19T15:07:38.048Z,30.42
2022-08-19T15:10:08.061Z,29.97
2022-08-19T15:12:36.379Z,30.28
2022-08-19T15:15:04.180Z,30.20
2022-08-19T15:17:45.018Z,30.47
2022-08-19T15:20:20.280Z,30.63
2022-08-19T15:22:47.360Z,30.85
2022-08-19T15:25:18.040Z,30.76
2022-08-19T15:27:46.185Z,32.03
2022-08-19T15:30:19.040Z,32.99
2022-08-19T15:32:48.949Z,32.65
2022-08-19T15:35:16.744Z,32.50
2022-08-19T15:37:44.763Z,33.04
2022-08-19T15:40:12.569Z,32.66
2022-08-19T15:42:42.669Z,32.10
2022-08-19T15:45:11.687Z,32.19
2022-08-19T15:47:39.780Z,31.95
2022-08-19T15:50:17.531Z,32.15
2022-08-19T15:52:56.969Z,33.04
2022-08-19T15:55:33.963Z,32.52
2022-08-19T15:58:28.880Z,32.03
2022-08-19T16:01:27.369Z,32.32
2022-08-19T16:04:16.027Z,32.46
2022-08-19T16:06:53.869Z,32.71
2022-08-19T16:09:26.983Z,32.99
2022-08-19T16:12:01.254Z,33.65
2022-08-19T16:14:30.531Z,33.94
2022-08-19T16:16:57.749Z,35.49
2022-08-19T16:19:25.489Z,36.80
2022-08-19T16:21:53.461Z,36.92
2022-08-19T16:24:24.903Z,37.34
2022-08-19T16:26:53.140Z,37.61
2022-08-19T16:29:33.923Z,38.10
2022-08-19T16:32:10.456Z,38.28
2022-08-19T16:34:40.316Z,38.01
2022-08-19T16:37:08.211Z,38.53
2022-08-19T16:39:35.089Z,39.73
2022-08-19T16:42:03.339Z,40.43
2022-08-19T16:44:31.771Z,39.86
2022-08-19T16:47:00.055Z,38.96
2022-08-19T16:49:53.268Z,39.22
2022-08-19T16:52:20.011Z,39.91
2022-08-19T16:54:48.219Z,39.78
2022-08-19T16:57:15.320Z,38.72
2022-08-19T16:59:48.104Z,38.73
2022-08-19T17:02:22.673Z,39.13
2022-08-19T17:04:58.317Z,39.44
2022-08-19T17:07:33.027Z,39.70
2022-08-19T17:10:02.290Z,40.16
2022-08-19T17:12:30.628Z,40.14
2022-08-19T17:15:03.769Z,39.86
2022-08-19T17:17:31.944Z,40.33
2022-08-19T17:20:00.569Z,39.89
2022-08-19T17:22:28.096Z,40.64
2022-08-19T17:24:56.436Z,40.15
2022-08-19T17:27:25.969Z,41.26
2022-08-19T17:29:53.284Z,41.59
2022-08-19T17:32:25.131Z,41.90
2022-08-19T17:34:54.408Z,42.37
2022-08-19T17:37:22.179Z,41.66
2022-08-19T17:39:49.583Z,41.97
2022-08-19T17:42:16.990Z,42.38
2022-08-19T17:44:46.869Z,42.78
2022-08-19T17:47:18.590Z,43.09
2022-08-19T17:49:45.619Z,43.38
2022-08-19T17:52:12.569Z,42.92
2022-08-19T17:54:39.552Z,43.60
2022-08-19T17:57:06.537Z,43.58
2022-08-19T17:59:33.589Z,43.85
2022-08-19T18:02:01.270Z,43.99
2022-08-19T18:04:30.001Z,43.55
2022-08-19T18:06:57.650Z,43.50
2022-08-19T18:09:26.673Z,44.13
2022-08-19T18:11:57.359Z,44.11
2022-08-19T18:14:33.368Z,44.54
2022-08-19T18:17:06.409Z,44.59
2022-08-19T18:19:41.077Z,45.72
2022-08-19T18:22:30.849Z,45.76
2022-08-19T18:24:58.719Z,46.38
2022-08-19T18:27:27.950Z,46.44
2022-08-19T18:29:59.667Z,45.44
2022-08-19T18:32:32.550Z,45.29
2022-08-19T18:35:02.242Z,44.74
2022-08-19T18:37:29.207Z,45.23
2022-08-19T18:40:14.731Z,46.11
2022-08-19T18:43:02.139Z,46.91
2022-08-19T18:45:47.929Z,46.61
2022-08-19T18:48:33.779Z,47.24
2022-08-19T18:51:01.969Z,48.26
2022-08-19T18:53:32.511Z,49.29
2022-08-19T18:56:00.100Z,49.52
2022-08-19T18:58:34.265Z,50.15
2022-08-19T19:01:11.647Z,49.66
2022-08-19T19:03:47.569Z,49.58
2022-08-19T19:06:19.129Z,50.21
2022-08-19T19:08:48.470Z,51.18
2022-08-19T19:11:39.769Z,52.33
2022-08-19T19:14:23.327Z,52.89
2022-08-19T19:17:02.179Z,54.12
2022-08-19T19:19:30.230Z,52.60
2022-08-19T19:21:58.809Z,53.63
2022-08-19T19:24:30.422Z,53.80
2022-08-19T19:27:00.480Z,53.29
2022-08-19T19:29:28.040Z,53.39
2022-08-19T19:31:56.231Z,54.19
2022-08-19T19:34:29.057Z,54.18
2022-08-19T19:36:57.359Z,54.28
2022-08-19T19:39:44.801Z,54.64
2022-08-19T19:42:19.888Z,54.60
2022-08-19T19:44:50.691Z,54.79
2022-08-19T19:47:19.522Z,54.62
2022-08-19T19:50:13.916Z,55.18
2022-08-19T19:52:39.869Z,55.18
2022-08-19T19:55:09.420Z,55.38
2022-08-19T19:57:37.570Z,55.00
2022-08-19T20:00:04.879Z,55.09
2022-08-19T20:02:31.780Z,55.35
2022-08-19T20:04:59.139Z,55.51
2022-08-19T20:07:46.570Z,55.75
2022-08-19T20:10:14.219Z,55.27
2022-08-19T20:12:41.269Z,56.14
2022-08-19T20:15:08.704Z,56.08
2022-08-19T20:17:42.730Z,55.41
2022-08-19T20:20:19.525Z,55.74
2022-08-19T20:22:47.829Z,56.79
2022-08-19T20:25:16.749Z,57.30
2022-08-19T20:27:44.159Z,57.27
2022-08-19T20:30:19.479Z,57.62
2022-08-19T20:32:48.161Z,57.57
2022-08-19T20:35:18.939Z,57.19
2022-08-19T20:37:46.310Z,57.08
2022-08-19T20:40:14.091Z,57.22
2022-08-19T20:42:42.991Z,57.61
2022-08-19T20:45:21.605Z,58.20
2022-08-19T20:47:59.599Z,57.15
2022-08-19T20:50:26.993Z,57.65
2022-08-19T20:52:57.349Z,57.11
2022-08-19T20:55:26.069Z,58.05
2022-08-19T20:57:53.493Z,58.58
2022-08-19T21:00:21.042Z,58.27
2022-08-19T21:02:48.119Z,58.09
2022-08-19T21:05:15.199Z,57.59
2022-08-19T21:07:42.940Z,58.14
2022-08-19T21:10:09.915Z,58.30
2022-08-19T21:12:36.940Z,58.66
2022-08-19T21:15:05.290Z,59.11
2022-08-19T21:17:32.290Z,58.47
2022-08-19T21:19:59.400Z,58.21
2022-08-19T21:22:26.431Z,59.16
2022-08-19T21:24:53.866Z,59.40
2022-08-19T21:27:20.807Z,59.27
2022-08-19T21:29:48.420Z,60.13
2022-08-19T21:32:15.420Z,59.71
2022-08-19T21:34:44.034Z,59.82
2022-08-19T21:37:14.793Z,60.48
2022-08-19T21:39:51.959Z,60.77
2022-08-19T21:42:19.019Z,60.81
2022-08-19T21:44:46.159Z,60.55
2022-08-19T21:47:13.382Z,60.08
2022-08-19T21:49:40.389Z,60.23
2022-08-19T21:52:08.399Z,60.31
2022-08-19T21:54:37.887Z,60.24
2022-08-19T21:57:10.595Z,60.43
2022-08-19T21:59:43.727Z,60.49
2022-08-19T22:02:22.337Z,60.39
2022-08-19T22:04:51.780Z,59.75
2022-08-19T22:07:20.553Z,60.42
2022-08-19T22:09:49.562Z,59.74
2022-08-19T22:12:37.970Z,59.93
2022-08-19T22:15:09.190Z,60.39
2022-08-19T22:17:36.700Z,60.21
2022-08-19T22:20:05.479Z,60.49
2022-08-19T22:22:33.559Z,60.87
2022-08-19T22:25:24.363Z,60.91
2022-08-19T22:28:01.841Z,60.35
2022-08-19T22:30:33.101Z,59.80
2022-08-19T22:33:09.194Z,60.05
2022-08-19T22:35:38.403Z,58.86
2022-08-19T22:38:07.439Z,58.15
2022-08-19T22:40:39.758Z,58.13
2022-08-19T22:43:08.280Z,58.38
2022-08-19T22:45:36.549Z,58.14
2022-08-19T22:48:08.019Z,57.75
2022-08-19T22:50:36.241Z,57.32
2022-08-19T22:53:06.450Z,56.84
2022-08-19T22:55:34.469Z,55.77
2022-08-19T22:58:01.731Z,55.93
2022-08-19T23:00:29.144Z,55.37
2022-08-19T23:02:57.900Z,55.42
2022-08-19T23:05:27.909Z,55.18
2022-08-19T23:07:57.676Z,54.96
2022-08-19T23:10:26.723Z,55.24
2022-08-19T23:12:56.945Z,54.81
2022-08-19T23:15:27.635Z,54.74
2022-08-19T23:17:57.114Z,54.99
2022-08-19T23:20:27.478Z,54.68
2022-08-19T23:22:55.359Z,55.55
2022-08-19T23:25:26.867Z,55.37
2022-08-19T23:28:13.482Z,55.48
2022-08-19T23:30:47.287Z,55.69
2022-08-19T23:33:41.065Z,55.48
2022-08-19T23:36:16.578Z,55.01
2022-08-19T23:38:46.008Z,55.23
2022-08-19T23:41:14.947Z,55.38
2022-08-19T23:43:43.078Z,55.12
2022-08-19T23:46:13.337Z,55.32
2022-08-19T23:48:40.781Z,55.64
2022-08-19T23:51:11.095Z,55.61
2022-08-19T23:53:40.473Z,55.94
2022-08-19T23:56:09.335Z,55.75
2022-08-19T23:58:37.447Z,55.95
